createdAt,value
2023-03-24T00:01:57.401Z,97917.88
2023-03-24T00:04:25.252Z,97924.97
2023-03-24T00:06:52.667Z,97907.63
2023-03-24T00:09:20.201Z,97907.41
2023-03-24T00:11:47.127Z,97910.69
2023-03-24T00:14:14.178Z,97908.56
2023-03-24T00:16:45.676Z,97913.53
2023-03-24T00:19:15.246Z,97900.16
2023-03-24T00:21:43.016Z,97908.44
2023-03-24T00:24:11.803Z,97903.59
2023-03-24T00:26:41.094Z,97904.66
2023-03-24T00:29:13.901Z,97894.41
2023-03-24T00:31:40.846Z,97900.66
2023-03-24T00:34:09.311Z,97891.69
2023-03-24T00:36:37.452Z,97886.69
2023-03-24T00:39:06.559Z,97897.00
2023-03-24T00:41:33.836Z,97901.81
2023-03-24T00:44:04.042Z,97888.13
2023-03-24T00:46:31.249Z,97889.78
2023-03-24T00:49:05.917Z,97887.28
2023-03-24T00:51:39.634Z,97872.91
2023-03-24T00:54:09.549Z,97866.41
2023-03-24T00:56:40.875Z,97873.50
2023-03-24T00:59:10.629Z,97871.59
2023-03-24T01:01:41.135Z,97862.63
2023-03-24T01:04:08.605Z,97859.06
2023-03-24T01:06:37.383Z,97856.63
2023-03-24T01:09:36.624Z,97849.53
2023-03-24T01:12:25.339Z,97847.03
2023-03-24T01:15:16.856Z,97853.31
2023-03-24T01:18:03.891Z,97843.50
2023-03-24T01:20:59.646Z,97841.03
2023-03-24T01:23:45.911Z,97843.75
2023-03-24T01:26:12.879Z,97842.09
2023-03-24T01:28:41.349Z,97834.78
2023-03-24T01:31:10.173Z,97847.88
2023-03-24T01:33:38.261Z,97839.50
2023-03-24T01:36:06.817Z,97841.38
2023-03-24T01:38:35.118Z,97838.91
2023-03-24T01:41:02.963Z,97847.03
2023-03-24T01:43:31.929Z,97840.22
2023-03-24T01:46:13.378Z,97836.06
2023-03-24T01:49:01.531Z,97842.81
2023-03-24T01:51:34.949Z,97832.78
2023-03-24T01:54:07.321Z,97830.63
2023-03-24T01:56:38.675Z,97828.53
2023-03-24T01:59:17.291Z,97832.63
2023-03-24T02:01:45.836Z,97838.41
2023-03-24T02:04:13.865Z,97836.78
2023-03-24T02:06:44.209Z,97829.19
2023-03-24T02:09:13.683Z,97827.19
2023-03-24T02:11:41.911Z,97829.47
2023-03-24T02:14:28.784Z,97838.41
2023-03-24T02:17:31.068Z,97831.56
2023-03-24T02:20:44.532Z,97824.75
2023-03-24T02:23:25.357Z,97830.19
2023-03-24T02:26:44.461Z,97825.53
2023-03-24T02:29:43.489Z,97821.19
2023-03-24T02:33:00.415Z,97820.59
2023-03-24T02:35:56.189Z,97814.34
2023-03-24T02:39:00.715Z,97811.88
2023-03-24T02:41:42.651Z,97810.69
2023-03-24T02:44:26.755Z,97811.88
2023-03-24T02:47:01.503Z,97810.22
2023-03-24T02:49:48.185Z,97805.84
2023-03-24T02:52:15.078Z,97803.13
2023-03-24T02:54:44.556Z,97802.53
2023-03-24T02:57:24.955Z,97795.22
2023-03-24T03:00:05.013Z,97806.34
2023-03-24T03:02:36.121Z,97807.38
2023-03-24T03:05:14.154Z,97799.25
2023-03-24T03:07:44.914Z,97794.88
2023-03-24T03:10:18.032Z,97804.69
2023-03-24T03:12:50.639Z,97797.34
2023-03-24T03:15:24.579Z,97802.19
2023-03-24T03:18:41.033Z,97798.66
2023-03-24T03:21:13.474Z,97790.75
2023-03-24T03:24:02.547Z,97792.03
2023-03-24T03:26:33.245Z,97777.66
2023-03-24T03:29:06.181Z,97793.00
2023-03-24T03:31:52.134Z,97792.19
2023-03-24T03:34:52.977Z,97792.06
2023-03-24T03:37:38.661Z,97796.91
2023-03-24T03:40:25.397Z,97792.41
2023-03-24T03:42:52.768Z,97785.41
2023-03-24T03:45:19.933Z,97782.59
2023-03-24T03:47:47.142Z,97790.63
2023-03-24T03:50:14.147Z,97780.81
2023-03-24T03:52:41.948Z,97793.81
2023-03-24T03:55:09.622Z,97775.75
2023-03-24T03:57:36.858Z,97780.47
2023-03-24T04:00:12.124Z,97788.00
2023-03-24T04:02:54.464Z,97790.34
2023-03-24T04:05:36.316Z,97787.38
2023-03-24T04:08:18.909Z,97784.88
2023-03-24T04:11:14.631Z,97781.91
2023-03-24T04:14:06.209Z,97792.63
2023-03-24T04:17:00.957Z,97791.81
2023-03-24T04:19:50.599Z,97792.72
2023-03-24T04:22:40.712Z,97793.78
2023-03-24T04:25:31.529Z,97784.44
2023-03-24T04:28:32.129Z,97789.03
2023-03-24T04:31:07.629Z,97785.63
2023-03-24T04:33:46.371Z,97784.97
2023-03-24T04:36:19.277Z,97780.09
2023-03-24T04:38:55.109Z,97778.72
2023-03-24T04:41:26.020Z,97789.56
2023-03-24T04:43:57.410Z,97792.47
2023-03-24T04:46:25.691Z,97790.59
2023-03-24T04:48:52.603Z,97786.22
2023-03-24T04:51:21.251Z,97789.78
2023-03-24T04:53:48.753Z,97789.19
2023-03-24T04:56:40.194Z,97786.34
2023-03-24T04:59:10.221Z,97774.84
2023-03-24T05:01:37.869Z,97776.41
2023-03-24T05:04:06.335Z,97783.09
2023-03-24T05:06:33.622Z,97786.88
2023-03-24T05:09:00.611Z,97784.63
2023-03-24T05:11:28.078Z,97785.81
2023-03-24T05:13:55.802Z,97790.56
2023-03-24T05:16:22.787Z,97789.25
2023-03-24T05:18:49.765Z,97790.91
2023-03-24T05:21:16.677Z,97783.84
2023-03-24T05:23:43.689Z,97794.47
2023-03-24T05:26:11.173Z,97785.50
2023-03-24T05:28:38.098Z,97785.03
2023-03-24T05:31:05.134Z,97777.75
2023-03-24T05:33:34.181Z,97780.22
2023-03-24T05:36:01.472Z,97794.13
2023-03-24T05:38:28.394Z,97785.78
2023-03-24T05:40:59.377Z,97782.03
2023-03-24T05:43:26.920Z,97775.72
2023-03-24T05:46:46.543Z,97779.41
2023-03-24T05:49:15.291Z,97773.53
2023-03-24T05:51:42.187Z,97781.44
2023-03-24T05:54:09.130Z,97778.09
2023-03-24T05:56:36.089Z,97773.16
2023-03-24T05:59:03.417Z,97762.69
2023-03-24T06:01:30.592Z,97778.03
2023-03-24T06:03:57.646Z,97774.03
2023-03-24T06:06:24.579Z,97766.03
2023-03-24T06:08:54.824Z,97771.94
2023-03-24T06:11:21.717Z,97767.28
2023-03-24T06:13:49.035Z,97767.16
2023-03-24T06:16:18.998Z,97771.66
2023-03-24T06:18:52.681Z,97770.75
2023-03-24T06:21:20.682Z,97768.75
2023-03-24T06:23:57.433Z,97771.72
2023-03-24T06:26:35.572Z,97774.78
2023-03-24T06:29:02.538Z,97762.78
2023-03-24T06:31:30.718Z,97767.16
2023-03-24T06:33:58.267Z,97765.50
2023-03-24T06:36:25.956Z,97761.06
2023-03-24T06:38:53.956Z,97763.22
2023-03-24T06:41:21.655Z,97769.13
2023-03-24T06:43:48.629Z,97772.47
2023-03-24T06:46:15.647Z,97761.16
2023-03-24T06:48:42.589Z,97759.28
2023-03-24T06:51:09.532Z,97763.84
2023-03-24T06:53:38.013Z,97762.81
2023-03-24T06:56:05.231Z,97766.84
2023-03-24T06:58:33.923Z,97760.50
2023-03-24T07:01:02.301Z,97760.50
2023-03-24T07:03:29.372Z,97758.34
2023-03-24T07:05:57.388Z,97753.91
2023-03-24T07:08:37.512Z,97753.25
2023-03-24T07:11:07.275Z,97753.06
2023-03-24T07:13:34.389Z,97753.59
2023-03-24T07:16:01.549Z,97752.53
2023-03-24T07:18:28.812Z,97757.38
2023-03-24T07:20:55.698Z,97752.53
2023-03-24T07:23:22.631Z,97756.72
2023-03-24T07:25:49.533Z,97747.88
2023-03-24T07:28:16.550Z,97748.91
2023-03-24T07:30:43.490Z,97748.88
2023-03-24T07:33:12.209Z,97742.41
2023-03-24T07:35:40.531Z,97741.94
2023-03-24T07:38:07.912Z,97731.66
2023-03-24T07:40:37.924Z,97740.88
2023-03-24T07:43:06.797Z,97743.72
2023-03-24T07:45:34.182Z,97742.69
2023-03-24T07:48:02.345Z,97737.41
2023-03-24T07:50:30.305Z,97742.84
2023-03-24T07:52:59.807Z,97718.81
2023-03-24T07:55:27.571Z,97731.25
2023-03-24T07:57:54.748Z,97733.22
2023-03-24T08:00:22.628Z,97725.16
2023-03-24T08:02:52.415Z,97731.03
2023-03-24T08:05:22.100Z,97726.81
2023-03-24T08:07:53.757Z,97719.09
2023-03-24T08:10:30.130Z,97722.97
2023-03-24T08:12:58.280Z,97725.25
2023-03-24T08:15:27.477Z,97723.44
2023-03-24T08:17:56.704Z,97714.47
2023-03-24T08:20:25.273Z,97707.16
2023-03-24T08:22:54.625Z,97713.53
2023-03-24T08:25:24.778Z,97708.47
2023-03-24T08:27:52.328Z,97710.44
2023-03-24T08:30:22.575Z,97701.22
2023-03-24T08:32:52.237Z,97704.03
2023-03-24T08:35:22.896Z,97693.44
2023-03-24T08:37:49.781Z,97694.84
2023-03-24T08:40:20.884Z,97692.13
2023-03-24T08:42:49.725Z,97693.25
2023-03-24T08:45:21.177Z,97689.97
2023-03-24T08:47:49.551Z,97692.19
2023-03-24T08:50:16.894Z,97676.28
2023-03-24T08:52:44.204Z,97676.78
2023-03-24T08:55:11.642Z,97679.25
2023-03-24T08:57:38.560Z,97667.97
2023-03-24T09:00:15.562Z,97667.69
2023-03-24T09:02:45.189Z,97660.53
2023-03-24T09:05:12.817Z,97661.91
2023-03-24T09:07:39.778Z,97659.47
2023-03-24T09:10:09.566Z,97655.44
2023-03-24T09:12:37.860Z,97666.91
2023-03-24T09:15:06.506Z,97658.75
2023-03-24T09:17:33.695Z,97643.91
2023-03-24T09:20:02.160Z,97643.06
2023-03-24T09:22:29.353Z,97632.03
2023-03-24T09:24:56.257Z,97636.03
2023-03-24T09:27:23.621Z,97637.06
2023-03-24T09:29:50.961Z,97638.69
2023-03-24T09:32:17.832Z,97622.22
2023-03-24T09:34:44.747Z,97624.91
2023-03-24T09:37:11.668Z,97621.84
2023-03-24T09:39:38.724Z,97628.75
2023-03-24T09:42:07.350Z,97627.69
2023-03-24T09:44:40.738Z,97620.25
2023-03-24T09:47:22.500Z,97638.00
2023-03-24T09:49:51.947Z,97630.03
2023-03-24T09:52:35.367Z,97619.00
2023-03-24T09:55:03.400Z,97615.88
2023-03-24T09:57:38.119Z,97609.78
2023-03-24T10:00:19.652Z,97598.78
2023-03-24T10:02:47.697Z,97597.03
2023-03-24T10:05:20.996Z,97601.81
2023-03-24T10:07:59.924Z,97599.38
2023-03-24T10:10:38.546Z,97598.84
2023-03-24T10:13:30.536Z,97600.56
2023-03-24T10:16:21.270Z,97594.97
2023-03-24T10:19:05.538Z,97599.03
2023-03-24T10:21:36.594Z,97559.00
2023-03-24T10:24:33.579Z,97587.50
2023-03-24T10:27:16.784Z,97583.59
2023-03-24T10:29:46.749Z,97574.31
2023-03-24T10:32:22.524Z,97588.31
2023-03-24T10:34:56.700Z,97585.19
2023-03-24T10:37:23.930Z,97581.56
2023-03-24T10:39:52.204Z,97585.44
2023-03-24T10:42:25.957Z,97580.31
2023-03-24T10:44:53.434Z,97580.09
2023-03-24T10:47:26.424Z,97572.97
2023-03-24T10:49:58.043Z,97580.28
2023-03-24T10:52:25.478Z,97577.94
2023-03-24T10:55:03.711Z,97577.53
2023-03-24T10:57:31.578Z,97568.28
2023-03-24T11:00:09.994Z,97564.69
2023-03-24T11:02:38.252Z,97568.53
2023-03-24T11:05:19.274Z,97562.66
2023-03-24T11:07:49.308Z,97558.69
2023-03-24T11:10:21.236Z,97567.47
2023-03-24T11:12:54.059Z,97560.97
2023-03-24T11:15:26.474Z,97560.03
2023-03-24T11:17:57.593Z,97556.84
2023-03-24T11:20:41.689Z,97557.34
2023-03-24T11:23:14.812Z,97558.03
2023-03-24T11:25:47.174Z,97546.19
2023-03-24T11:28:25.655Z,97552.41
2023-03-24T11:30:55.397Z,97541.16
2023-03-24T11:33:35.916Z,97528.41
2023-03-24T11:36:30.703Z,97536.84
2023-03-24T11:39:22.350Z,97530.06
2023-03-24T11:42:14.331Z,97525.09
2023-03-24T11:44:48.289Z,97531.94
2023-03-24T11:47:36.791Z,97522.03
2023-03-24T11:50:09.563Z,97510.22
2023-03-24T11:52:40.712Z,97521.22
2023-03-24T11:55:18.745Z,97505.06
2023-03-24T11:58:28.196Z,97504.66
2023-03-24T12:01:21.787Z,97500.47
2023-03-24T12:04:25.108Z,97495.66
2023-03-24T12:07:14.852Z,97497.88
2023-03-24T12:09:50.598Z,97495.00
2023-03-24T12:12:43.172Z,97496.59
2023-03-24T12:15:26.760Z,97485.38
2023-03-24T12:18:17.311Z,97485.13
2023-03-24T12:20:48.754Z,97495.66
2023-03-24T12:23:40.806Z,97493.59
2023-03-24T12:26:14.823Z,97488.19
2023-03-24T12:28:47.344Z,97489.03
2023-03-24T12:31:33.038Z,97492.28
2023-03-24T12:34:14.416Z,97481.72
2023-03-24T12:36:55.604Z,97479.75
2023-03-24T12:39:37.593Z,97479.69
2023-03-24T12:42:20.284Z,97480.72
2023-03-24T12:45:13.850Z,97459.91
2023-03-24T12:47:49.492Z,97473.47
2023-03-24T12:50:22.603Z,97465.91
2023-03-24T12:55:46.827Z,97466.53
2023-03-24T12:58:27.169Z,97463.63
2023-03-24T13:01:02.001Z,97435.44
2023-03-24T13:03:42.883Z,97449.66
2023-03-24T13:06:18.444Z,97442.13
2023-03-24T13:08:58.695Z,97436.94
2023-03-24T13:11:36.530Z,97437.81
2023-03-24T13:14:10.579Z,97433.16
2023-03-24T13:16:40.697Z,97416.00
2023-03-24T13:19:18.638Z,97431.28
2023-03-24T13:21:46.728Z,97424.91
2023-03-24T13:24:15.263Z,97425.41
2023-03-24T13:26:51.685Z,97425.19
2023-03-24T13:29:41.840Z,97422.78
2023-03-24T13:32:21.736Z,97415.72
2023-03-24T13:35:06.668Z,97418.50
2023-03-24T13:37:39.277Z,97419.63
2023-03-24T13:40:18.597Z,97411.78
2023-03-24T13:42:58.725Z,97411.34
2023-03-24T13:45:40.987Z,97415.44
2023-03-24T13:48:27.678Z,97418.47
2023-03-24T13:51:04.083Z,97416.03
2023-03-24T13:53:40.590Z,97402.88
2023-03-24T13:56:09.850Z,97415.47
2023-03-24T13:58:58.591Z,97401.81
2023-03-24T14:01:37.061Z,97392.97
2023-03-24T14:04:19.140Z,97397.28
2023-03-24T14:06:48.819Z,97400.84
2023-03-24T14:09:23.474Z,97388.78
2023-03-24T14:11:56.487Z,97404.69
2023-03-24T14:14:26.120Z,97393.19
2023-03-24T14:17:03.588Z,97387.19
2023-03-24T14:19:39.523Z,97394.97
2023-03-24T14:22:21.333Z,97389.81
2023-03-24T14:24:59.802Z,97380.81
2023-03-24T14:27:42.942Z,97374.81
2023-03-24T14:30:19.864Z,97367.19
2023-03-24T14:32:49.459Z,97371.56
2023-03-24T14:35:32.346Z,97371.28
2023-03-24T14:38:05.328Z,97373.97
2023-03-24T14:40:41.935Z,97354.34
2023-03-24T14:43:24.996Z,97364.38
2023-03-24T14:46:23.028Z,97356.34
2023-03-24T14:49:17.228Z,97362.38
2023-03-24T14:52:08.827Z,97361.22
2023-03-24T14:54:42.288Z,97355.41
2023-03-24T14:57:20.516Z,97349.94
2023-03-24T15:00:01.260Z,97352.13
2023-03-24T15:02:28.486Z,97339.28
2023-03-24T15:05:14.378Z,97336.31
2023-03-24T15:07:42.413Z,97345.16
2023-03-24T15:10:20.250Z,97347.09
2023-03-24T15:12:48.729Z,97327.72
2023-03-24T15:15:25.933Z,97318.53
2023-03-24T15:17:53.076Z,97327.00
2023-03-24T15:20:29.920Z,97333.09
2023-03-24T15:22:57.118Z,97327.44
2023-03-24T15:25:29.225Z,97332.91
2023-03-24T15:27:57.953Z,97334.00
2023-03-24T15:30:25.725Z,97320.09
2023-03-24T15:32:53.135Z,97326.94
2023-03-24T15:35:23.019Z,97323.66
2023-03-24T15:37:57.276Z,97336.00
2023-03-24T15:40:26.983Z,97331.63
2023-03-24T15:42:57.442Z,97338.78
2023-03-24T15:45:35.548Z,97336.38
2023-03-24T15:48:15.043Z,97340.22
2023-03-24T15:50:57.291Z,97344.09
2023-03-24T15:53:32.256Z,97347.97
2023-03-24T15:56:26.313Z,97361.69
2023-03-24T15:58:57.338Z,97356.81
2023-03-24T16:01:36.453Z,97363.13
2023-03-24T16:04:34.498Z,97367.78
2023-03-24T16:07:01.465Z,97370.50
2023-03-24T16:09:38.215Z,97364.78
2023-03-24T16:12:11.010Z,97365.06
2023-03-24T16:14:39.048Z,97378.72
2023-03-24T16:17:06.220Z,97377.88
2023-03-24T16:19:33.280Z,97394.25
2023-03-24T16:22:00.201Z,97380.00
2023-03-24T16:24:27.092Z,97385.69
2023-03-24T16:26:54.099Z,97394.94
2023-03-24T16:29:23.306Z,97377.97
2023-03-24T16:31:53.119Z,97386.13
2023-03-24T16:34:21.748Z,97393.75
2023-03-24T16:36:51.133Z,97402.16
2023-03-24T16:39:23.763Z,97395.34
2023-03-24T16:41:51.281Z,97396.66
2023-03-24T16:44:18.420Z,97394.72
2023-03-24T16:46:46.977Z,97408.91
2023-03-24T16:49:18.814Z,97415.94
2023-03-24T16:51:47.348Z,97415.66
2023-03-24T16:54:14.411Z,97420.22
2023-03-24T16:56:41.586Z,97397.47
2023-03-24T16:59:09.388Z,97422.56
2023-03-24T17:01:41.833Z,97426.81
2023-03-24T17:04:19.581Z,97428.91
2023-03-24T17:06:50.979Z,97423.38
2023-03-24T17:09:18.030Z,97404.41
2023-03-24T17:11:52.361Z,97422.38
2023-03-24T17:14:19.578Z,97429.13
2023-03-24T17:16:49.407Z,97424.47
2023-03-24T17:19:19.253Z,97409.63
2023-03-24T17:22:06.882Z,97411.22
2023-03-24T17:24:36.858Z,97407.91
2023-03-24T17:27:16.944Z,97405.53
2023-03-24T17:29:43.868Z,97406.00
2023-03-24T17:32:11.398Z,97404.81
2023-03-24T17:34:38.434Z,97404.88
2023-03-24T17:37:06.244Z,97389.75
2023-03-24T17:39:33.234Z,97358.06
2023-03-24T17:42:01.642Z,97311.13
2023-03-24T17:44:29.066Z,97359.34
2023-03-24T17:46:56.091Z,97382.41
2023-03-24T17:49:22.967Z,97400.34
2023-03-24T17:51:49.908Z,97416.50
2023-03-24T17:54:19.377Z,97439.38
2023-03-24T17:56:46.874Z,97441.63
2023-03-24T17:59:13.951Z,97441.63
2023-03-24T18:01:40.911Z,97444.25
2023-03-24T18:04:10.149Z,97445.00
2023-03-24T18:06:38.762Z,97447.97
2023-03-24T18:09:05.808Z,97451.75
2023-03-24T18:11:32.936Z,97453.09
2023-03-24T18:13:59.882Z,97438.09
2023-03-24T18:16:30.318Z,97434.81
2023-03-24T18:18:57.923Z,97428.00
2023-03-24T18:21:24.937Z,97429.88
2023-03-24T18:23:51.939Z,97423.78
2023-03-24T18:26:19.173Z,97421.06
2023-03-24T18:28:46.383Z,97415.09
2023-03-24T18:31:16.662Z,97408.00
2023-03-24T18:33:46.255Z,97427.56
2023-03-24T18:36:16.803Z,97414.19
2023-03-24T18:38:44.567Z,97418.34
2023-03-24T18:41:14.157Z,97415.66
2023-03-24T18:43:41.542Z,97420.53
2023-03-24T18:46:10.422Z,97409.66
2023-03-24T18:48:38.182Z,97406.88
2023-03-24T18:51:06.306Z,97399.13
2023-03-24T18:53:36.552Z,97418.19
2023-03-24T18:56:05.679Z,97412.22
2023-03-24T18:58:33.916Z,97393.19
2023-03-24T19:01:09.560Z,97353.09
2023-03-24T19:03:38.592Z,97422.47
2023-03-24T19:06:07.427Z,97410.47
2023-03-24T19:08:38.071Z,97425.13
2023-03-24T19:11:05.639Z,97416.91
2023-03-24T19:13:32.990Z,97412.22
2023-03-24T19:16:00.494Z,97388.59
2023-03-24T19:18:27.682Z,97404.56
2023-03-24T19:20:56.544Z,97403.91
2023-03-24T19:23:24.836Z,97405.81
2023-03-24T19:25:55.243Z,97406.88
2023-03-24T19:28:29.349Z,97413.72
2023-03-24T19:30:57.641Z,97404.66
2023-03-24T19:33:24.559Z,97390.72
2023-03-24T19:35:52.044Z,97399.78
2023-03-24T19:38:24.099Z,97406.03
2023-03-24T19:40:54.482Z,97393.44
2023-03-24T19:43:25.944Z,97405.22
2023-03-24T19:45:55.195Z,97400.28
2023-03-24T19:48:23.426Z,97402.41
2023-03-24T19:50:52.901Z,97400.28
2023-03-24T19:53:20.792Z,97409.13
2023-03-24T19:55:48.371Z,97409.13
2023-03-24T19:58:16.045Z,97410.94
2023-03-24T20:00:43.049Z,97426.75
2023-03-24T20:03:10.227Z,97411.03
2023-03-24T20:05:37.606Z,97420.81
2023-03-24T20:08:04.817Z,97416.13
2023-03-24T20:10:31.781Z,97419.16
2023-03-24T20:12:58.676Z,97412.09
2023-03-24T20:15:29.411Z,97397.13
2023-03-24T20:17:56.926Z,97416.13
2023-03-24T20:20:25.198Z,97410.47
2023-03-24T20:22:52.436Z,97399.59
2023-03-24T20:25:20.151Z,97409.38
2023-03-24T20:27:48.026Z,97407.97
2023-03-24T20:30:17.205Z,97404.44
2023-03-24T20:32:44.409Z,97393.03
2023-03-24T20:35:12.651Z,97402.22
2023-03-24T20:37:40.289Z,97400.59
2023-03-24T20:40:10.245Z,97393.09
2023-03-24T20:42:38.705Z,97408.41
2023-03-24T20:45:08.499Z,97405.69
2023-03-24T20:47:37.208Z,97402.06
2023-03-24T20:50:06.519Z,97408.53
2023-03-24T20:52:35.153Z,97411.25
2023-03-24T20:55:06.467Z,97412.56
2023-03-24T20:57:34.013Z,97413.88
2023-03-24T21:00:01.645Z,97406.00
2023-03-24T21:02:28.863Z,97409.53
2023-03-24T21:04:57.379Z,97407.88
2023-03-24T21:07:26.066Z,97413.03
2023-03-24T21:09:53.366Z,97417.19
2023-03-24T21:12:21.656Z,97403.50
2023-03-24T21:14:49.359Z,97350.47
2023-03-24T21:17:18.752Z,97395.47
2023-03-24T21:19:47.080Z,97396.03
2023-03-24T21:22:17.197Z,97399.34
2023-03-24T21:24:44.087Z,97405.25
2023-03-24T21:27:11.017Z,97407.97
2023-03-24T21:29:38.292Z,97403.59
2023-03-24T21:32:05.420Z,97406.88
2023-03-24T21:34:32.535Z,97401.47
2023-03-24T21:37:01.790Z,97405.81
2023-03-24T21:39:29.117Z,97405.81
2023-03-24T21:41:56.093Z,97404.16
2023-03-24T21:44:23.543Z,97407.38
2023-03-24T21:46:50.505Z,97403.84
2023-03-24T21:49:19.195Z,97404.91
2023-03-24T21:51:46.948Z,97406.00
2023-03-24T21:54:15.252Z,97403.03
2023-03-24T21:56:42.435Z,97413.88
2023-03-24T21:59:11.448Z,97406.31
2023-03-24T22:01:38.622Z,97414.22
2023-03-24T22:04:08.848Z,97404.16
2023-03-24T22:06:38.241Z,97401.72
2023-03-24T22:09:07.350Z,97397.59
2023-03-24T22:11:35.803Z,97397.94
2023-03-24T22:14:04.049Z,97392.75
2023-03-24T22:16:31.394Z,97397.59
2023-03-24T22:18:58.839Z,97400.56
2023-03-24T22:21:25.901Z,97393.50
2023-03-24T22:23:53.591Z,97391.59
2023-03-24T22:26:21.317Z,97381.81
2023-03-24T22:28:48.928Z,97386.19
2023-03-24T22:31:17.860Z,97383.47
2023-03-24T22:33:47.750Z,97398.41
2023-03-24T22:36:14.798Z,97391.94
2023-03-24T22:38:42.727Z,97391.19
2023-03-24T22:41:12.746Z,97389.53
2023-03-24T22:43:41.190Z,97389.31
2023-03-24T22:46:09.224Z,97382.00
2023-03-24T22:48:36.536Z,97383.66
2023-03-24T22:51:03.943Z,97387.75
2023-03-24T22:53:30.839Z,97382.81
2023-03-24T22:55:57.776Z,97385.78
2023-03-24T22:58:24.701Z,97384.13
2023-03-24T23:00:55.589Z,97385.78
2023-03-24T23:03:22.838Z,97381.16
2023-03-24T23:05:49.896Z,97392.84
2023-03-24T23:08:17.076Z,97387.66
2023-03-24T23:10:45.551Z,97386.38
2023-03-24T23:13:13.534Z,97385.28
2023-03-24T23:15:42.800Z,97378.22
2023-03-24T23:18:10.922Z,97372.78
2023-03-24T23:20:38.010Z,97372.22
2023-03-24T23:23:06.821Z,97372.94
2023-03-24T23:25:34.945Z,97379.69
2023-03-24T23:28:01.922Z,97393.81
2023-03-24T23:30:28.894Z,97400.06
2023-03-24T23:32:57.775Z,97394.88
2023-03-24T23:35:24.980Z,97396.75
2023-03-24T23:37:52.181Z,97389.13
2023-03-24T23:40:19.479Z,97385.91
2023-03-24T23:42:47.810Z,97386.91
2023-03-24T23:45:18.298Z,97382.78
2023-03-24T23:47:49.643Z,97361.69
2023-03-24T23:50:18.307Z,97366.50
2023-03-24T23:52:45.325Z,97339.78
2023-03-24T23:55:14.503Z,97368.75
2023-03-24T23:57:42.651Z,97357.31
